createdAt,value
2017-11-21T00:01:55.081Z,6.10
2017-11-21T00:05:02.521Z,6.00
2017-11-21T00:08:08.141Z,6.00
2017-11-21T00:11:13.817Z,6.00
2017-11-21T00:14:20.061Z,6.00
2017-11-21T00:17:26.719Z,6.00
2017-11-21T00:20:31.457Z,6.00
2017-11-21T00:23:37.159Z,6.00
2017-11-21T00:26:42.297Z,5.90
2017-11-21T00:29:47.307Z,5.90
2017-11-21T00:32:54.329Z,5.90
2017-11-21T00:36:02.145Z,5.90
2017-11-21T00:39:10.872Z,5.90
2017-11-21T00:42:22.029Z,5.90
2017-11-21T00:45:32.742Z,5.90
2017-11-21T00:48:38.523Z,6.00
2017-11-21T00:51:44.672Z,5.90
2017-11-21T00:54:51.450Z,5.90
2017-11-21T00:57:58.112Z,5.90
2017-11-21T01:01:07.641Z,5.90
2017-11-21T01:04:13.239Z,5.90
2017-11-21T01:07:24.016Z,5.90
2017-11-21T01:10:29.168Z,6.00
2017-11-21T01:13:34.250Z,6.00
2017-11-21T01:16:39.916Z,6.00
2017-11-21T01:19:46.896Z,6.00
2017-11-21T01:22:54.805Z,6.00
2017-11-21T01:26:01.359Z,6.10
2017-11-21T01:29:08.377Z,6.00
2017-11-21T01:32:15.393Z,6.00
2017-11-21T01:35:21.900Z,6.10
2017-11-21T01:38:28.071Z,6.00
2017-11-21T01:41:33.537Z,6.00
2017-11-21T01:44:38.997Z,6.00
2017-11-21T01:47:44.070Z,6.10
2017-11-21T01:50:50.596Z,6.10
2017-11-21T01:53:55.699Z,6.10
2017-11-21T01:57:03.549Z,6.00
2017-11-21T02:00:17.028Z,6.10
2017-11-21T02:03:28.588Z,6.20
2017-11-21T02:06:40.809Z,6.10
2017-11-21T02:09:53.105Z,6.20
2017-11-21T02:12:58.531Z,6.20
2017-11-21T02:16:07.502Z,6.30
2017-11-21T02:19:13.802Z,6.50
2017-11-21T02:22:23.209Z,6.50
2017-11-21T02:25:30.520Z,6.50
2017-11-21T02:28:35.392Z,6.50
2017-11-21T02:31:42.741Z,6.60
2017-11-21T02:34:47.738Z,6.50
2017-11-21T02:37:55.012Z,6.50
2017-11-21T02:41:05.415Z,6.50
2017-11-21T02:44:10.300Z,6.50
2017-11-21T02:47:16.806Z,6.50
2017-11-21T02:50:22.715Z,6.50
2017-11-21T02:53:29.836Z,6.50
2017-11-21T02:56:37.196Z,6.50
2017-11-21T02:59:52.810Z,6.50
2017-11-21T03:02:59.755Z,6.50
2017-11-21T03:06:07.565Z,6.50
2017-11-21T03:09:13.073Z,6.50
2017-11-21T03:12:24.813Z,6.50
2017-11-21T03:15:29.856Z,6.50
2017-11-21T03:18:34.817Z,6.50
2017-11-21T03:21:53.716Z,6.50
2017-11-21T03:25:11.213Z,6.50
2017-11-21T03:28:24.457Z,6.50
2017-11-21T03:31:30.697Z,6.50
2017-11-21T03:34:35.792Z,6.50
2017-11-21T03:37:41.368Z,6.50
2017-11-21T03:40:47.477Z,6.50
2017-11-21T03:43:52.333Z,6.50
2017-11-21T03:46:57.475Z,6.50
2017-11-21T03:50:03.194Z,6.50
2017-11-21T03:53:09.043Z,6.50
2017-11-21T03:56:15.264Z,6.50
2017-11-21T03:59:21.602Z,6.50
2017-11-21T04:02:26.309Z,6.50
2017-11-21T04:05:31.161Z,6.50
2017-11-21T04:08:36.929Z,6.50
2017-11-21T04:11:45.395Z,6.50
2017-11-21T04:14:51.886Z,6.50
2017-11-21T04:18:00.144Z,6.60
2017-11-21T04:21:08.457Z,6.50
2017-11-21T04:24:14.376Z,6.60
2017-11-21T04:27:25.557Z,6.60
2017-11-21T04:30:31.202Z,6.60
2017-11-21T04:33:36.629Z,6.60
2017-11-21T04:36:42.292Z,6.60
2017-11-21T04:39:47.134Z,6.60
2017-11-21T04:43:03.061Z,6.60
2017-11-21T04:46:17.272Z,6.60
2017-11-21T04:49:25.896Z,6.70
2017-11-21T04:52:31.982Z,6.70
2017-11-21T04:55:37.430Z,6.60
2017-11-21T04:58:49.197Z,6.60
2017-11-21T05:01:55.050Z,6.60
2017-11-21T05:05:00.671Z,6.60
2017-11-21T05:08:06.383Z,6.50
2017-11-21T05:11:12.816Z,6.50
2017-11-21T05:14:17.997Z,6.50
2017-11-21T05:17:23.419Z,6.50
2017-11-21T05:20:28.813Z,6.50
2017-11-21T05:23:34.264Z,6.50
2017-11-21T05:26:39.600Z,6.50
2017-11-21T05:29:45.084Z,6.50
2017-11-21T05:33:03.237Z,6.50
2017-11-21T05:36:10.057Z,6.60
2017-11-21T05:39:24.668Z,6.50
2017-11-21T05:42:32.321Z,6.50
2017-11-21T05:45:41.336Z,6.50
2017-11-21T05:48:52.517Z,6.50
2017-11-21T05:52:01.365Z,6.50
2017-11-21T05:55:06.146Z,6.60
2017-11-21T05:58:13.189Z,6.60
2017-11-21T06:01:20.125Z,6.60
2017-11-21T06:04:25.121Z,6.60
2017-11-21T06:07:31.312Z,6.60
2017-11-21T06:10:44.668Z,6.60
2017-11-21T06:13:49.825Z,6.50
2017-11-21T06:16:54.677Z,6.50
2017-11-21T06:19:59.991Z,6.50
2017-11-21T06:23:05.559Z,6.50
2017-11-21T06:26:11.301Z,6.50
2017-11-21T06:29:21.548Z,6.50
2017-11-21T06:32:26.738Z,6.50
2017-11-21T06:35:31.577Z,6.50
2017-11-21T06:38:37.217Z,6.60
2017-11-21T06:41:42.132Z,6.50
2017-11-21T06:44:46.956Z,6.50
2017-11-21T06:47:52.624Z,6.50
2017-11-21T06:50:57.425Z,6.50
2017-11-21T06:54:03.081Z,6.50
2017-11-21T06:57:08.365Z,6.50
2017-11-21T07:00:13.408Z,6.50
2017-11-21T07:03:18.094Z,6.50
2017-11-21T07:06:23.937Z,6.40
2017-11-21T07:09:29.617Z,6.40
2017-11-21T07:12:34.504Z,6.50
2017-11-21T07:15:40.208Z,6.50
2017-11-21T07:18:45.378Z,6.50
2017-11-21T07:21:50.365Z,6.50
2017-11-21T07:24:55.264Z,6.60
2017-11-21T07:28:00.860Z,6.60
2017-11-21T07:31:05.615Z,6.50
2017-11-21T07:34:11.652Z,6.50
2017-11-21T07:37:18.544Z,6.50
2017-11-21T07:40:23.723Z,6.50
2017-11-21T07:43:29.177Z,6.50
2017-11-21T07:46:35.409Z,6.60
2017-11-21T07:49:41.257Z,6.60
2017-11-21T07:52:46.701Z,6.60
2017-11-21T07:55:51.885Z,6.60
2017-11-21T07:58:57.856Z,6.60
2017-11-21T08:02:03.040Z,6.60
2017-11-21T08:05:08.226Z,6.60
2017-11-21T08:08:13.436Z,6.70
2017-11-21T08:11:18.257Z,6.70
2017-11-21T08:14:23.350Z,6.70
2017-11-21T08:17:28.873Z,6.70
2017-11-21T08:20:34.453Z,6.70
2017-11-21T08:23:39.672Z,6.60
2017-11-21T08:26:44.364Z,6.60
2017-11-21T08:29:49.641Z,6.60
2017-11-21T08:32:54.677Z,6.60
2017-11-21T08:36:00.489Z,6.60
2017-11-21T08:39:06.761Z,6.50
2017-11-21T08:42:12.417Z,6.50
2017-11-21T08:45:17.262Z,6.50
2017-11-21T08:48:22.697Z,6.60
2017-11-21T08:51:28.192Z,6.60
2017-11-21T08:54:33.558Z,6.70
2017-11-21T08:57:39.913Z,6.80
2017-11-21T09:00:45.564Z,6.80
2017-11-21T09:03:51.370Z,6.80
2017-11-21T09:06:56.973Z,6.80
2017-11-21T09:10:02.298Z,6.80
2017-11-21T09:13:07.501Z,6.80
2017-11-21T09:16:12.874Z,6.90
2017-11-21T09:19:18.593Z,6.90
2017-11-21T09:22:24.158Z,6.90
2017-11-21T09:25:29.784Z,6.90
2017-11-21T09:28:35.190Z,6.90
2017-11-21T09:31:40.576Z,7.00
2017-11-21T09:34:45.581Z,7.00
2017-11-21T09:37:51.004Z,7.10
2017-11-21T09:40:56.372Z,7.00
2017-11-21T09:44:01.664Z,7.00
2017-11-21T09:47:06.749Z,6.90
2017-11-21T09:50:12.979Z,7.00
2017-11-21T09:53:18.169Z,7.00
2017-11-21T09:56:23.596Z,7.00
2017-11-21T09:59:28.474Z,7.10
2017-11-21T10:02:33.550Z,7.40
2017-11-21T10:05:38.649Z,7.40
2017-11-21T10:08:44.251Z,7.20
2017-11-21T10:11:49.128Z,7.20
2017-11-21T10:14:54.261Z,7.30
2017-11-21T10:17:59.776Z,7.20
2017-11-21T10:21:05.862Z,7.20
2017-11-21T10:24:10.856Z,7.20
2017-11-21T10:27:16.321Z,7.20
2017-11-21T10:30:22.193Z,7.20
2017-11-21T10:33:27.908Z,7.20
2017-11-21T10:36:33.112Z,7.30
2017-11-21T10:39:38.776Z,7.20
2017-11-21T10:42:45.076Z,7.10
2017-11-21T10:45:50.649Z,7.20
2017-11-21T10:48:56.807Z,7.10
2017-11-21T10:52:02.306Z,7.10
2017-11-21T10:55:07.725Z,7.20
2017-11-21T10:58:12.984Z,7.20
2017-11-21T11:01:18.877Z,7.30
2017-11-21T11:04:23.765Z,7.30
2017-11-21T11:07:29.063Z,7.40
2017-11-21T11:10:34.437Z,7.50
2017-11-21T11:13:39.832Z,7.40
2017-11-21T11:16:44.989Z,7.30
2017-11-21T11:19:51.277Z,7.20
2017-11-21T11:22:56.564Z,7.10
2017-11-21T11:26:02.084Z,7.40
2017-11-21T11:29:07.597Z,7.40
2017-11-21T11:32:14.212Z,7.60
2017-11-21T11:35:20.701Z,7.50
2017-11-21T11:38:26.364Z,7.50
2017-11-21T11:41:31.460Z,7.50
2017-11-21T11:44:36.193Z,7.60
2017-11-21T11:47:42.168Z,7.70
2017-11-21T11:50:47.241Z,7.70
2017-11-21T11:53:52.816Z,7.70
2017-11-21T11:56:58.121Z,7.70
2017-11-21T12:00:03.526Z,7.70
2017-11-21T12:03:09.980Z,7.80
2017-11-21T12:06:15.341Z,7.80
2017-11-21T12:09:20.525Z,7.90
2017-11-21T12:12:25.917Z,7.90
2017-11-21T12:15:31.637Z,7.90
2017-11-21T12:18:37.769Z,8.00
2017-11-21T12:21:42.578Z,8.10
2017-11-21T12:24:49.207Z,8.10
2017-11-21T12:27:54.731Z,8.10
2017-11-21T12:30:59.382Z,8.20
2017-11-21T12:34:04.356Z,8.20
2017-11-21T12:37:10.064Z,8.40
2017-11-21T12:40:15.524Z,8.50
2017-11-21T12:43:21.036Z,8.40
2017-11-21T12:46:27.057Z,8.60
2017-11-21T12:49:31.770Z,8.60
2017-11-21T12:52:37.009Z,8.40
2017-11-21T12:55:42.188Z,8.60
2017-11-21T12:58:47.635Z,8.20
2017-11-21T13:01:53.056Z,8.20
2017-11-21T13:04:58.768Z,8.30
2017-11-21T13:08:03.905Z,8.30
2017-11-21T13:11:09.097Z,8.50
2017-11-21T13:14:15.729Z,8.60
2017-11-21T13:17:21.193Z,8.40
2017-11-21T13:20:28.444Z,8.60
2017-11-21T13:23:33.610Z,8.80
2017-11-21T13:26:39.948Z,8.60
2017-11-21T13:29:45.718Z,8.80
2017-11-21T13:32:51.058Z,8.80
2017-11-21T13:35:55.832Z,8.70
2017-11-21T13:39:00.740Z,8.80
2017-11-21T13:42:05.834Z,8.80
2017-11-21T13:45:10.666Z,9.10
2017-11-21T13:48:15.952Z,9.20
2017-11-21T13:51:21.604Z,9.20
2017-11-21T13:54:27.089Z,9.20
2017-11-21T13:57:32.463Z,9.00
2017-11-21T14:00:38.013Z,8.80
2017-11-21T14:03:43.301Z,8.90
2017-11-21T14:06:48.488Z,8.80
2017-11-21T14:09:54.009Z,8.70
2017-11-21T14:13:01.102Z,8.70
2017-11-21T14:16:06.784Z,8.70
2017-11-21T14:19:12.898Z,8.80
2017-11-21T14:22:18.283Z,8.80
2017-11-21T14:25:23.523Z,8.70
2017-11-21T14:28:28.693Z,8.60
2017-11-21T14:31:35.382Z,8.50
2017-11-21T14:34:41.137Z,8.50
2017-11-21T14:37:46.509Z,8.50
2017-11-21T14:40:52.272Z,8.50
2017-11-21T14:43:58.741Z,8.40
2017-11-21T14:47:03.754Z,8.30
2017-11-21T14:50:09.414Z,8.30
2017-11-21T14:53:15.148Z,8.30
2017-11-21T14:56:19.861Z,8.30
2017-11-21T14:59:24.733Z,8.30
2017-11-21T15:02:30.133Z,8.20
2017-11-21T15:05:35.568Z,8.20
2017-11-21T15:08:41.265Z,8.10
2017-11-21T15:11:47.540Z,8.10
2017-11-21T15:14:52.946Z,8.10
2017-11-21T15:17:58.537Z,7.90
2017-11-21T15:21:04.172Z,7.90
2017-11-21T15:24:09.497Z,7.80
2017-11-21T15:27:15.123Z,7.80
2017-11-21T15:30:20.170Z,7.70
2017-11-21T15:33:25.769Z,7.60
2017-11-21T15:36:30.993Z,7.50
2017-11-21T15:39:35.694Z,7.50
2017-11-21T15:42:41.398Z,7.40
2017-11-21T15:45:46.435Z,7.40
2017-11-21T15:48:51.604Z,7.30
2017-11-21T15:51:57.389Z,6.90
2017-11-21T15:55:02.802Z,6.90
2017-11-21T15:58:07.827Z,6.80
2017-11-21T16:01:14.396Z,6.80
2017-11-21T16:04:25.386Z,6.80
2017-11-21T16:07:34.004Z,6.90
2017-11-21T16:10:39.621Z,6.70
2017-11-21T16:13:46.726Z,6.40
2017-11-21T16:16:51.974Z,6.40
2017-11-21T16:19:59.317Z,6.30
2017-11-21T16:23:04.574Z,6.30
2017-11-21T16:26:10.676Z,6.40
2017-11-21T16:29:17.397Z,6.50
2017-11-21T16:32:22.370Z,6.50
2017-11-21T16:35:27.549Z,6.50
2017-11-21T16:38:33.137Z,6.50
2017-11-21T16:41:47.060Z,6.60
2017-11-21T16:44:55.252Z,6.60
2017-11-21T16:48:02.346Z,6.60
2017-11-21T16:51:10.961Z,6.70
2017-11-21T16:54:16.585Z,6.70
2017-11-21T16:57:22.090Z,6.80
2017-11-21T17:00:27.154Z,6.90
2017-11-21T17:03:33.333Z,7.00
2017-11-21T17:06:40.194Z,7.20
2017-11-21T17:09:46.354Z,7.20
2017-11-21T17:12:55.897Z,7.30
2017-11-21T17:16:16.265Z,7.30
2017-11-21T17:19:22.607Z,7.50
2017-11-21T17:22:31.269Z,7.50
2017-11-21T17:25:39.206Z,7.50
2017-11-21T17:28:44.398Z,7.50
2017-11-21T17:31:50.857Z,7.60
2017-11-21T17:34:59.273Z,7.60
2017-11-21T17:38:04.277Z,7.70
2017-11-21T17:41:13.101Z,7.80
2017-11-21T17:44:20.796Z,7.80
2017-11-21T17:47:27.013Z,7.80
2017-11-21T17:50:32.634Z,7.80
2017-11-21T17:53:40.009Z,7.80
2017-11-21T17:56:45.212Z,7.80
2017-11-21T18:00:01.330Z,7.90
2017-11-21T18:03:07.709Z,7.90
2017-11-21T18:06:12.969Z,7.90
2017-11-21T18:09:17.793Z,8.00
2017-11-21T18:12:24.119Z,8.10
2017-11-21T18:15:29.766Z,8.10
2017-11-21T18:18:35.659Z,8.20
2017-11-21T18:21:41.493Z,8.30
2017-11-21T18:24:59.080Z,8.30
2017-11-21T18:28:04.181Z,8.30
2017-11-21T18:31:09.269Z,8.40
2017-11-21T18:34:14.926Z,8.50
2017-11-21T18:37:20.204Z,8.60
2017-11-21T18:40:25.696Z,8.50
2017-11-21T18:43:31.070Z,8.60
2017-11-21T18:46:36.244Z,8.60
2017-11-21T18:49:42.965Z,8.60
2017-11-21T18:52:52.473Z,8.60
2017-11-21T18:55:57.331Z,8.60
2017-11-21T18:59:03.609Z,8.60
2017-11-21T19:02:09.873Z,8.50
2017-11-21T19:05:18.773Z,8.50
2017-11-21T19:08:27.935Z,8.40
2017-11-21T19:11:34.176Z,8.40
2017-11-21T19:14:42.440Z,8.40
2017-11-21T19:17:51.797Z,8.40
2017-11-21T19:20:57.937Z,8.50
2017-11-21T19:24:03.721Z,8.50
2017-11-21T19:27:08.685Z,8.50
2017-11-21T19:30:13.524Z,8.50
2017-11-21T19:33:19.712Z,8.30
2017-11-21T19:36:24.662Z,8.30
2017-11-21T19:39:30.485Z,8.30
2017-11-21T19:42:35.612Z,8.30
2017-11-21T19:45:40.922Z,8.20
2017-11-21T19:48:46.126Z,8.10
2017-11-21T19:51:51.520Z,8.20
2017-11-21T19:54:56.700Z,8.00
2017-11-21T19:58:02.389Z,8.00
2017-11-21T20:01:08.431Z,8.00
2017-11-21T20:04:13.920Z,7.90
2017-11-21T20:07:19.722Z,7.60
2017-11-21T20:10:29.005Z,7.60
2017-11-21T20:13:37.325Z,7.40
2017-11-21T20:16:43.124Z,7.20
2017-11-21T20:19:49.206Z,7.20
2017-11-21T20:22:54.490Z,7.20
2017-11-21T20:25:59.243Z,7.20
2017-11-21T20:29:04.232Z,7.20
2017-11-21T20:32:09.937Z,7.30
2017-11-21T20:35:18.154Z,7.30
2017-11-21T20:38:24.802Z,7.30
2017-11-21T20:41:41.421Z,7.30
2017-11-21T20:44:47.187Z,7.40
2017-11-21T20:47:52.034Z,7.40
2017-11-21T20:50:58.384Z,7.40
2017-11-21T20:54:21.164Z,7.20
2017-11-21T20:57:25.936Z,7.20
2017-11-21T21:00:32.001Z,7.20
2017-11-21T21:03:37.783Z,7.20
2017-11-21T21:06:44.586Z,7.20
2017-11-21T21:09:50.595Z,7.30
2017-11-21T21:12:57.001Z,7.30
2017-11-21T21:16:08.228Z,7.10
2017-11-21T21:19:13.893Z,6.80
2017-11-21T21:22:26.740Z,6.40
2017-11-21T21:25:33.028Z,6.40
2017-11-21T21:28:49.990Z,6.40
2017-11-21T21:31:56.469Z,6.50
2017-11-21T21:35:01.828Z,6.50
2017-11-21T21:38:08.780Z,6.50
2017-11-21T21:41:16.788Z,6.40
2017-11-21T21:44:24.996Z,6.30
2017-11-21T21:47:30.119Z,6.40
2017-11-21T21:50:42.500Z,6.50
2017-11-21T21:53:47.425Z,6.60
2017-11-21T21:56:54.852Z,6.60
2017-11-21T22:00:02.851Z,6.40
2017-11-21T22:03:08.715Z,6.00
2017-11-21T22:06:16.221Z,5.60
2017-11-21T22:09:21.140Z,5.50
2017-11-21T22:12:27.904Z,5.30
2017-11-21T22:15:35.489Z,5.10
2017-11-21T22:18:43.069Z,4.90
2017-11-21T22:21:51.540Z,4.80
2017-11-21T22:24:57.257Z,4.70
2017-11-21T22:28:02.548Z,4.60
2017-11-21T22:31:08.984Z,4.50
2017-11-21T22:34:21.503Z,4.40
2017-11-21T22:37:30.457Z,4.30
2017-11-21T22:40:38.880Z,4.20
2017-11-21T22:43:43.834Z,4.10
2017-11-21T22:46:58.264Z,4.00
2017-11-21T22:50:10.212Z,3.90
2017-11-21T22:53:16.877Z,3.90
2017-11-21T22:56:22.014Z,3.90
2017-11-21T22:59:30.237Z,3.80
2017-11-21T23:02:48.696Z,4.00
2017-11-21T23:05:54.129Z,4.10
2017-11-21T23:08:59.891Z,3.90
2017-11-21T23:12:09.310Z,3.90
2017-11-21T23:15:14.856Z,4.10
2017-11-21T23:18:22.135Z,4.10
2017-11-21T23:21:27.997Z,4.80
2017-11-21T23:24:35.428Z,4.80
2017-11-21T23:27:41.028Z,5.10
2017-11-21T23:30:47.881Z,5.40
2017-11-21T23:34:02.742Z,5.30
2017-11-21T23:37:08.204Z,5.40
2017-11-21T23:40:16.464Z,5.50
2017-11-21T23:43:26.457Z,5.60
2017-11-21T23:46:35.482Z,5.60
2017-11-21T23:49:40.509Z,5.80
2017-11-21T23:52:45.570Z,6.10
2017-11-21T23:55:50.672Z,6.30
2017-11-21T23:58:56.394Z,6.40
